sensor_id;sensor_type;location;lat;lon;timestamp;temperature;humidity
21906;DHT22;11117;48.644;9.006;2023-04-26T00:01:45;6.40;99.90
21906;DHT22;11117;48.644;9.006;2023-04-26T00:04:10;6.30;99.90
21906;DHT22;11117;48.644;9.006;2023-04-26T00:06:36;6.40;99.90
21906;DHT22;11117;48.644;9.006;2023-04-26T00:09:01;6.30;99.90
21906;DHT22;11117;48.644;9.006;2023-04-26T00:11:27;6.40;99.90
21906;DHT22;11117;48.644;9.006;2023-04-26T00:13:52;6.40;99.90
21906;DHT22;11117;48.644;9.006;2023-04-26T00:16:18;6.50;99.90
21906;DHT22;11117;48.644;9.006;2023-04-26T00:18:44;6.40;99.90
21906;DHT22;11117;48.644;9.006;2023-04-26T00:21:09;6.40;99.90
21906;DHT22;11117;48.644;9.006;2023-04-26T00:23:35;6.40;99.90
21906;DHT22;11117;48.644;9.006;2023-04-26T00:26:00;6.30;99.90
21906;DHT22;11117;48.644;9.006;2023-04-26T00:28:27;6.30;99.90
21906;DHT22;11117;48.644;9.006;2023-04-26T00:30:52;6.30;99.90
21906;DHT22;11117;48.644;9.006;2023-04-26T00:33:18;6.30;99.90
21906;DHT22;11117;48.644;9.006;2023-04-26T00:35:43;6.20;99.90
21906;DHT22;11117;48.644;9.006;2023-04-26T00:38:09;6.20;99.90
21906;DHT22;11117;48.644;9.006;2023-04-26T00:40:34;6.20;99.90
21906;DHT22;11117;48.644;9.006;2023-04-26T00:43:01;6.20;99.90
21906;DHT22;11117;48.644;9.006;2023-04-26T00:45:27;6.40;99.90
21906;DHT22;11117;48.644;9.006;2023-04-26T00:47:53;6.30;99.90
21906;DHT22;11117;48.644;9.006;2023-04-26T00:50:18;6.40;99.90
21906;DHT22;11117;48.644;9.006;2023-04-26T00:52:46;6.40;99.90
21906;DHT22;11117;48.644;9.006;2023-04-26T00:55:11;6.40;99.90
21906;DHT22;11117;48.644;9.006;2023-04-26T00:57:38;6.40;99.90
21906;DHT22;11117;48.644;9.006;2023-04-26T01:00:04;6.40;99.90
21906;DHT22;11117;48.644;9.006;2023-04-26T01:02:30;6.40;99.90
21906;DHT22;11117;48.644;9.006;2023-04-26T01:04:56;6.40;99.90
21906;DHT22;11117;48.644;9.006;2023-04-26T01:07:21;6.30;99.90
21906;DHT22;11117;48.644;9.006;2023-04-26T01:09:48;6.40;99.90
21906;DHT22;11117;48.644;9.006;2023-04-26T01:12:14;6.30;99.90
21906;DHT22;11117;48.644;9.006;2023-04-26T01:14:40;6.30;99.90
21906;DHT22;11117;48.644;9.006;2023-04-26T01:17:06;6.30;99.90
21906;DHT22;11117;48.644;9.006;2023-04-26T01:19:31;6.50;99.90
21906;DHT22;11117;48.644;9.006;2023-04-26T01:21:57;6.50;99.90
21906;DHT22;11117;48.644;9.006;2023-04-26T01:24:22;6.40;99.90
21906;DHT22;11117;48.644;9.006;2023-04-26T01:26:48;6.40;99.90
21906;DHT22;11117;48.644;9.006;2023-04-26T01:29:15;6.30;99.90
21906;DHT22;11117;48.644;9.006;2023-04-26T01:31:42;6.30;99.90
21906;DHT22;11117;48.644;9.006;2023-04-26T01:34:07;6.40;99.90
21906;DHT22;11117;48.644;9.006;2023-04-26T01:36:33;6.20;99.90
21906;DHT22;11117;48.644;9.006;2023-04-26T01:38:58;6.40;99.90
21906;DHT22;11117;48.644;9.006;2023-04-26T01:41:24;6.40;99.90
21906;DHT22;11117;48.644;9.006;2023-04-26T01:43:49;6.50;99.90
21906;DHT22;11117;48.644;9.006;2023-04-26T01:46:15;6.50;99.90
21906;DHT22;11117;48.644;9.006;2023-04-26T01:48:41;6.60;99.90
21906;DHT22;11117;48.644;9.006;2023-04-26T01:51:06;6.60;99.90
21906;DHT22;11117;48.644;9.006;2023-04-26T01:53:32;6.60;99.90
21906;DHT22;11117;48.644;9.006;2023-04-26T01:56:01;6.60;99.90
21906;DHT22;11117;48.644;9.006;2023-04-26T01:58:28;6.60;99.90
21906;DHT22;11117;48.644;9.006;2023-04-26T02:00:53;6.60;99.90
21906;DHT22;11117;48.644;9.006;2023-04-26T02:03:19;6.50;99.90
21906;DHT22;11117;48.644;9.006;2023-04-26T02:05:45;6.50;99.90
21906;DHT22;11117;48.644;9.006;2023-04-26T02:08:10;6.50;99.90
21906;DHT22;11117;48.644;9.006;2023-04-26T02:10:36;6.50;99.90
21906;DHT22;11117;48.644;9.006;2023-04-26T02:13:01;6.50;99.90
21906;DHT22;11117;48.644;9.006;2023-04-26T02:15:27;6.50;99.90
21906;DHT22;11117;48.644;9.006;2023-04-26T02:17:52;6.50;99.90
21906;DHT22;11117;48.644;9.006;2023-04-26T02:20:18;6.50;99.90
21906;DHT22;11117;48.644;9.006;2023-04-26T02:22:44;6.50;99.90
21906;DHT22;11117;48.644;9.006;2023-04-26T02:25:09;6.40;99.90
21906;DHT22;11117;48.644;9.006;2023-04-26T02:27:35;6.40;99.90
21906;DHT22;11117;48.644;9.006;2023-04-26T02:30:00;6.30;99.90
21906;DHT22;11117;48.644;9.006;2023-04-26T02:32:26;6.20;99.90
21906;DHT22;11117;48.644;9.006;2023-04-26T02:34:51;6.20;99.90
21906;DHT22;11117;48.644;9.006;2023-04-26T02:37:17;6.10;99.90
21906;DHT22;11117;48.644;9.006;2023-04-26T02:39:49;6.10;99.90
21906;DHT22;11117;48.644;9.006;2023-04-26T02:42:14;6.20;99.90
21906;DHT22;11117;48.644;9.006;2023-04-26T02:44:40;6.00;99.90
21906;DHT22;11117;48.644;9.006;2023-04-26T02:47:06;6.10;99.90
21906;DHT22;11117;48.644;9.006;2023-04-26T02:49:31;6.10;99.90
21906;DHT22;11117;48.644;9.006;2023-04-26T02:51:57;6.20;99.90
21906;DHT22;11117;48.644;9.006;2023-04-26T02:54:22;6.20;99.90
21906;DHT22;11117;48.644;9.006;2023-04-26T02:56:48;6.20;99.90
21906;DHT22;11117;48.644;9.006;2023-04-26T02:59:13;6.20;99.90
21906;DHT22;11117;48.644;9.006;2023-04-26T03:01:39;6.30;99.90
21906;DHT22;11117;48.644;9.006;2023-04-26T03:04:05;6.30;99.90
21906;DHT22;11117;48.644;9.006;2023-04-26T03:06:31;6.40;99.90
21906;DHT22;11117;48.644;9.006;2023-04-26T03:08:57;6.40;99.90
21906;DHT22;11117;48.644;9.006;2023-04-26T03:11:22;6.30;99.90
21906;DHT22;11117;48.644;9.006;2023-04-26T03:13:48;6.30;99.90
21906;DHT22;11117;48.644;9.006;2023-04-26T03:16:13;6.30;99.90
21906;DHT22;11117;48.644;9.006;2023-04-26T03:18:39;6.30;99.90
21906;DHT22;11117;48.644;9.006;2023-04-26T03:21:04;6.30;99.90
21906;DHT22;11117;48.644;9.006;2023-04-26T03:23:30;6.20;99.90
21906;DHT22;11117;48.644;9.006;2023-04-26T03:25:55;6.10;99.90
21906;DHT22;11117;48.644;9.006;2023-04-26T03:28:21;6.10;99.90
21906;DHT22;11117;48.644;9.006;2023-04-26T03:30:46;6.00;99.90
21906;DHT22;11117;48.644;9.006;2023-04-26T03:33:12;6.00;99.90
21906;DHT22;11117;48.644;9.006;2023-04-26T03:35:38;5.90;99.90
21906;DHT22;11117;48.644;9.006;2023-04-26T03:38:03;5.80;99.90
21906;DHT22;11117;48.644;9.006;2023-04-26T03:40:29;5.70;99.90
21906;DHT22;11117;48.644;9.006;2023-04-26T03:42:54;5.60;99.90
21906;DHT22;11117;48.644;9.006;2023-04-26T03:45:20;5.50;99.90
21906;DHT22;11117;48.644;9.006;2023-04-26T03:47:45;5.40;99.90
21906;DHT22;11117;48.644;9.006;2023-04-26T03:50:11;5.40;99.90
21906;DHT22;11117;48.644;9.006;2023-04-26T03:52:36;5.40;99.90
21906;DHT22;11117;48.644;9.006;2023-04-26T03:55:02;5.30;99.90
21906;DHT22;11117;48.644;9.006;2023-04-26T03:57:28;5.30;99.90
21906;DHT22;11117;48.644;9.006;2023-04-26T03:59:53;5.30;99.90
21906;DHT22;11117;48.644;9.006;2023-04-26T04:02:19;5.20;99.90
21906;DHT22;11117;48.644;9.006;2023-04-26T04:04:46;5.20;99.90
21906;DHT22;11117;48.644;9.006;2023-04-26T04:07:11;5.10;99.90
21906;DHT22;11117;48.644;9.006;2023-04-26T04:09:37;5.10;99.90
21906;DHT22;11117;48.644;9.006;2023-04-26T04:12:03;5.00;99.90
21906;DHT22;11117;48.644;9.006;2023-04-26T04:14:28;5.00;99.90
21906;DHT22;11117;48.644;9.006;2023-04-26T04:16:54;5.00;99.90
21906;DHT22;11117;48.644;9.006;2023-04-26T04:19:19;5.00;99.90
21906;DHT22;11117;48.644;9.006;2023-04-26T04:21:45;5.00;99.90
21906;DHT22;11117;48.644;9.006;2023-04-26T04:24:10;5.00;99.90
21906;DHT22;11117;48.644;9.006;2023-04-26T04:26:36;5.00;99.90
21906;DHT22;11117;48.644;9.006;2023-04-26T04:29:01;5.00;99.90
21906;DHT22;11117;48.644;9.006;2023-04-26T04:31:27;5.00;99.90
21906;DHT22;11117;48.644;9.006;2023-04-26T04:33:53;5.10;99.90
21906;DHT22;11117;48.644;9.006;2023-04-26T04:36:19;5.10;99.90
21906;DHT22;11117;48.644;9.006;2023-04-26T04:38:44;5.10;99.90
21906;DHT22;11117;48.644;9.006;2023-04-26T04:41:10;5.10;99.90
21906;DHT22;11117;48.644;9.006;2023-04-26T04:43:35;5.10;99.90
21906;DHT22;11117;48.644;9.006;2023-04-26T04:46:01;5.20;99.90
21906;DHT22;11117;48.644;9.006;2023-04-26T04:48:26;5.30;99.90
21906;DHT22;11117;48.644;9.006;2023-04-26T04:50:52;5.40;99.90
21906;DHT22;11117;48.644;9.006;2023-04-26T04:53:17;5.50;99.90
21906;DHT22;11117;48.644;9.006;2023-04-26T04:55:43;5.60;99.90
21906;DHT22;11117;48.644;9.006;2023-04-26T04:58:09;5.70;99.90
21906;DHT22;11117;48.644;9.006;2023-04-26T05:00:34;5.70;99.90
21906;DHT22;11117;48.644;9.006;2023-04-26T05:03:00;5.80;99.90
21906;DHT22;11117;48.644;9.006;2023-04-26T05:05:28;5.80;99.90
21906;DHT22;11117;48.644;9.006;2023-04-26T05:07:54;5.90;99.90
21906;DHT22;11117;48.644;9.006;2023-04-26T05:10:19;5.90;99.90
21906;DHT22;11117;48.644;9.006;2023-04-26T05:12:45;5.90;99.90
21906;DHT22;11117;48.644;9.006;2023-04-26T05:15:10;5.90;99.90
21906;DHT22;11117;48.644;9.006;2023-04-26T05:17:36;5.80;99.90
21906;DHT22;11117;48.644;9.006;2023-04-26T05:20:02;5.80;99.90
21906;DHT22;11117;48.644;9.006;2023-04-26T05:22:27;5.80;99.90
21906;DHT22;11117;48.644;9.006;2023-04-26T05:24:53;5.80;99.90
21906;DHT22;11117;48.644;9.006;2023-04-26T05:27:18;5.70;99.90
21906;DHT22;11117;48.644;9.006;2023-04-26T05:29:46;5.60;99.90
21906;DHT22;11117;48.644;9.006;2023-04-26T05:32:12;5.80;99.90
21906;DHT22;11117;48.644;9.006;2023-04-26T05:34:37;5.90;99.90
21906;DHT22;11117;48.644;9.006;2023-04-26T05:37:03;6.00;99.90
21906;DHT22;11117;48.644;9.006;2023-04-26T05:39:29;5.90;99.90
21906;DHT22;11117;48.644;9.006;2023-04-26T05:41:54;5.90;99.90
21906;DHT22;11117;48.644;9.006;2023-04-26T05:44:20;5.90;99.90
21906;DHT22;11117;48.644;9.006;2023-04-26T05:46:45;5.90;99.90
21906;DHT22;11117;48.644;9.006;2023-04-26T05:49:11;6.00;99.90
21906;DHT22;11117;48.644;9.006;2023-04-26T05:51:36;6.10;99.90
21906;DHT22;11117;48.644;9.006;2023-04-26T05:54:02;6.20;99.90
21906;DHT22;11117;48.644;9.006;2023-04-26T05:56:27;6.20;99.90
21906;DHT22;11117;48.644;9.006;2023-04-26T05:58:53;6.30;99.90
21906;DHT22;11117;48.644;9.006;2023-04-26T06:01:19;6.40;99.90
21906;DHT22;11117;48.644;9.006;2023-04-26T06:03:45;6.50;99.90
21906;DHT22;11117;48.644;9.006;2023-04-26T06:06:10;6.60;99.90
21906;DHT22;11117;48.644;9.006;2023-04-26T06:08:36;6.60;99.90
21906;DHT22;11117;48.644;9.006;2023-04-26T06:11:02;6.70;99.90
21906;DHT22;11117;48.644;9.006;2023-04-26T06:13:27;6.60;99.90
21906;DHT22;11117;48.644;9.006;2023-04-26T06:15:53;6.70;99.90
21906;DHT22;11117;48.644;9.006;2023-04-26T06:18:19;6.70;99.90
21906;DHT22;11117;48.644;9.006;2023-04-26T06:20:54;6.80;99.90
21906;DHT22;11117;48.644;9.006;2023-04-26T06:23:20;6.80;99.90
21906;DHT22;11117;48.644;9.006;2023-04-26T06:25:46;6.90;99.90
21906;DHT22;11117;48.644;9.006;2023-04-26T06:28:11;6.90;99.90
21906;DHT22;11117;48.644;9.006;2023-04-26T06:30:37;6.90;99.90
21906;DHT22;11117;48.644;9.006;2023-04-26T06:33:03;7.10;99.90
21906;DHT22;11117;48.644;9.006;2023-04-26T06:35:28;7.40;99.90
21906;DHT22;11117;48.644;9.006;2023-04-26T06:37:54;7.40;99.90
21906;DHT22;11117;48.644;9.006;2023-04-26T06:40:20;7.40;99.90
21906;DHT22;11117;48.644;9.006;2023-04-26T06:42:45;7.70;99.90
21906;DHT22;11117;48.644;9.006;2023-04-26T06:45:11;7.80;99.90
21906;DHT22;11117;48.644;9.006;2023-04-26T06:47:36;8.00;99.90
21906;DHT22;11117;48.644;9.006;2023-04-26T06:50:03;8.10;99.90
21906;DHT22;11117;48.644;9.006;2023-04-26T06:52:29;8.20;99.90
21906;DHT22;11117;48.644;9.006;2023-04-26T06:54:54;8.30;99.90
21906;DHT22;11117;48.644;9.006;2023-04-26T06:57:20;8.50;99.90
21906;DHT22;11117;48.644;9.006;2023-04-26T06:59:47;8.60;99.90
21906;DHT22;11117;48.644;9.006;2023-04-26T07:02:13;8.50;99.90
21906;DHT22;11117;48.644;9.006;2023-04-26T07:04:38;8.60;99.90
21906;DHT22;11117;48.644;9.006;2023-04-26T07:07:04;8.90;99.90
21906;DHT22;11117;48.644;9.006;2023-04-26T07:09:29;9.10;99.90
21906;DHT22;11117;48.644;9.006;2023-04-26T07:11:55;9.40;99.90
21906;DHT22;11117;48.644;9.006;2023-04-26T07:14:21;9.60;99.90
21906;DHT22;11117;48.644;9.006;2023-04-26T07:16:47;9.70;99.90
21906;DHT22;11117;48.644;9.006;2023-04-26T07:19:13;9.90;99.90
21906;DHT22;11117;48.644;9.006;2023-04-26T07:21:38;9.80;99.90
21906;DHT22;11117;48.644;9.006;2023-04-26T07:24:04;9.90;99.90
21906;DHT22;11117;48.644;9.006;2023-04-26T07:26:29;9.80;99.90
21906;DHT22;11117;48.644;9.006;2023-04-26T07:28:55;9.90;99.90
21906;DHT22;11117;48.644;9.006;2023-04-26T07:31:20;9.80;99.90
21906;DHT22;11117;48.644;9.006;2023-04-26T07:33:46;10.00;99.90
21906;DHT22;11117;48.644;9.006;2023-04-26T07:36:12;10.20;99.90
21906;DHT22;11117;48.644;9.006;2023-04-26T07:38:37;10.30;99.90
21906;DHT22;11117;48.644;9.006;2023-04-26T07:41:03;10.30;99.90
21906;DHT22;11117;48.644;9.006;2023-04-26T07:43:29;10.10;99.90
21906;DHT22;11117;48.644;9.006;2023-04-26T07:45:59;10.20;99.90
21906;DHT22;11117;48.644;9.006;2023-04-26T07:48:24;10.20;99.90
21906;DHT22;11117;48.644;9.006;2023-04-26T07:50:50;10.20;99.90
21906;DHT22;11117;48.644;9.006;2023-04-26T07:53:15;10.10;99.90
21906;DHT22;11117;48.644;9.006;2023-04-26T07:55:41;10.10;99.90
21906;DHT22;11117;48.644;9.006;2023-04-26T07:58:06;10.40;99.90
21906;DHT22;11117;48.644;9.006;2023-04-26T08:00:32;10.40;99.90
21906;DHT22;11117;48.644;9.006;2023-04-26T08:02:57;10.50;99.90
21906;DHT22;11117;48.644;9.006;2023-04-26T08:05:23;10.60;99.90
21906;DHT22;11117;48.644;9.006;2023-04-26T08:07:48;10.60;99.90
21906;DHT22;11117;48.644;9.006;2023-04-26T08:10:14;10.80;99.90
21906;DHT22;11117;48.644;9.006;2023-04-26T08:12:39;11.00;99.90
21906;DHT22;11117;48.644;9.006;2023-04-26T08:15:05;10.90;99.90
21906;DHT22;11117;48.644;9.006;2023-04-26T08:17:31;11.10;99.90
21906;DHT22;11117;48.644;9.006;2023-04-26T08:19:58;11.20;99.90
21906;DHT22;11117;48.644;9.006;2023-04-26T08:22:23;11.40;99.90
21906;DHT22;11117;48.644;9.006;2023-04-26T08:24:51;11.70;99.60
21906;DHT22;11117;48.644;9.006;2023-04-26T08:27:17;11.70;98.00
21906;DHT22;11117;48.644;9.006;2023-04-26T08:29:46;11.50;99.60
21906;DHT22;11117;48.644;9.006;2023-04-26T08:32:12;12.00;99.30
21906;DHT22;11117;48.644;9.006;2023-04-26T08:34:38;12.20;99.00
21906;DHT22;11117;48.644;9.006;2023-04-26T08:37:05;12.20;97.70
21906;DHT22;11117;48.644;9.006;2023-04-26T08:39:32;12.80;98.40
21906;DHT22;11117;48.644;9.006;2023-04-26T08:42:04;12.80;97.70
21906;DHT22;11117;48.644;9.006;2023-04-26T08:44:33;13.20;96.90
21906;DHT22;11117;48.644;9.006;2023-04-26T08:47:03;13.60;96.50
21906;DHT22;11117;48.644;9.006;2023-04-26T08:52:03;13.50;95.30
21906;DHT22;11117;48.644;9.006;2023-04-26T08:54:30;13.70;95.60
21906;DHT22;11117;48.644;9.006;2023-04-26T08:56:58;14.00;94.80
21906;DHT22;11117;48.644;9.006;2023-04-26T08:59:24;14.20;94.80
21906;DHT22;11117;48.644;9.006;2023-04-26T09:01:50;14.30;94.50
21906;DHT22;11117;48.644;9.006;2023-04-26T09:04:16;14.10;93.10
21906;DHT22;11117;48.644;9.006;2023-04-26T09:06:42;13.90;93.30
21906;DHT22;11117;48.644;9.006;2023-04-26T09:09:08;13.90;94.10
21906;DHT22;11117;48.644;9.006;2023-04-26T09:11:55;14.10;94.20
21906;DHT22;11117;48.644;9.006;2023-04-26T09:14:21;14.40;93.80
21906;DHT22;11117;48.644;9.006;2023-04-26T09:16:46;14.50;93.60
21906;DHT22;11117;48.644;9.006;2023-04-26T09:19:12;14.70;93.20
21906;DHT22;11117;48.644;9.006;2023-04-26T09:21:45;14.80;92.60
21906;DHT22;11117;48.644;9.006;2023-04-26T09:24:12;14.90;92.90
21906;DHT22;11117;48.644;9.006;2023-04-26T09:26:38;14.90;93.20
21906;DHT22;11117;48.644;9.006;2023-04-26T09:29:11;15.10;92.50
21906;DHT22;11117;48.644;9.006;2023-04-26T09:31:39;15.20;92.10
21906;DHT22;11117;48.644;9.006;2023-04-26T09:34:05;15.10;92.20
21906;DHT22;11117;48.644;9.006;2023-04-26T09:36:31;15.50;93.30
21906;DHT22;11117;48.644;9.006;2023-04-26T09:38:57;15.60;92.20
21906;DHT22;11117;48.644;9.006;2023-04-26T09:41:22;15.20;91.40
21906;DHT22;11117;48.644;9.006;2023-04-26T09:43:51;15.60;91.10
21906;DHT22;11117;48.644;9.006;2023-04-26T09:46:22;14.30;90.80
21906;DHT22;11117;48.644;9.006;2023-04-26T09:49:00;14.00;90.70
21906;DHT22;11117;48.644;9.006;2023-04-26T09:51:25;14.10;90.50
21906;DHT22;11117;48.644;9.006;2023-04-26T09:53:51;14.30;92.10
21906;DHT22;11117;48.644;9.006;2023-04-26T09:56:20;14.60;91.60
21906;DHT22;11117;48.644;9.006;2023-04-26T10:01:13;15.00;91.30
21906;DHT22;11117;48.644;9.006;2023-04-26T10:03:39;15.10;91.20
21906;DHT22;11117;48.644;9.006;2023-04-26T10:06:05;15.20;90.90
21906;DHT22;11117;48.644;9.006;2023-04-26T10:08:31;15.50;90.50
21906;DHT22;11117;48.644;9.006;2023-04-26T10:10:57;15.90;89.40
21906;DHT22;11117;48.644;9.006;2023-04-26T10:13:22;16.00;88.50
21906;DHT22;11117;48.644;9.006;2023-04-26T10:15:48;16.10;88.30
21906;DHT22;11117;48.644;9.006;2023-04-26T10:18:14;15.20;86.80
21906;DHT22;11117;48.644;9.006;2023-04-26T10:20:41;14.90;87.50
21906;DHT22;11117;48.644;9.006;2023-04-26T10:23:19;14.70;88.30
21906;DHT22;11117;48.644;9.006;2023-04-26T10:25:45;15.40;88.00
21906;DHT22;11117;48.644;9.006;2023-04-26T10:28:11;15.50;88.80
21906;DHT22;11117;48.644;9.006;2023-04-26T10:30:57;15.70;88.90
21906;DHT22;11117;48.644;9.006;2023-04-26T10:33:23;16.00;87.60
21906;DHT22;11117;48.644;9.006;2023-04-26T10:36:24;15.80;85.90
21906;DHT22;11117;48.644;9.006;2023-04-26T10:39:22;15.30;85.00
21906;DHT22;11117;48.644;9.006;2023-04-26T10:41:48;15.70;84.80
21906;DHT22;11117;48.644;9.006;2023-04-26T10:44:36;15.50;86.00
21906;DHT22;11117;48.644;9.006;2023-04-26T10:47:05;15.90;86.80
21906;DHT22;11117;48.644;9.006;2023-04-26T10:49:43;16.20;86.40
21906;DHT22;11117;48.644;9.006;2023-04-26T10:52:16;15.70;83.70
21906;DHT22;11117;48.644;9.006;2023-04-26T10:54:55;15.70;83.20
21906;DHT22;11117;48.644;9.006;2023-04-26T10:57:22;16.00;84.60
21906;DHT22;11117;48.644;9.006;2023-04-26T11:02:57;16.90;82.00
21906;DHT22;11117;48.644;9.006;2023-04-26T11:10:30;17.40;78.10
21906;DHT22;11117;48.644;9.006;2023-04-26T11:13:02;17.10;78.40
21906;DHT22;11117;48.644;9.006;2023-04-26T11:15:30;17.30;80.60
21906;DHT22;11117;48.644;9.006;2023-04-26T11:17:56;17.70;76.40
21906;DHT22;11117;48.644;9.006;2023-04-26T11:20:21;17.20;76.30
21906;DHT22;11117;48.644;9.006;2023-04-26T11:22:47;16.10;76.10
21906;DHT22;11117;48.644;9.006;2023-04-26T11:25:13;16.40;75.90
21906;DHT22;11117;48.644;9.006;2023-04-26T11:27:41;16.00;76.50
21906;DHT22;11117;48.644;9.006;2023-04-26T11:30:07;16.10;75.30
21906;DHT22;11117;48.644;9.006;2023-04-26T11:32:33;16.00;76.90
21906;DHT22;11117;48.644;9.006;2023-04-26T11:34:59;15.80;77.30
21906;DHT22;11117;48.644;9.006;2023-04-26T11:37:25;16.20;77.80
21906;DHT22;11117;48.644;9.006;2023-04-26T11:39:51;16.80;75.90
21906;DHT22;11117;48.644;9.006;2023-04-26T11:42:24;16.90;77.20
21906;DHT22;11117;48.644;9.006;2023-04-26T11:44:50;17.20;75.60
21906;DHT22;11117;48.644;9.006;2023-04-26T11:47:15;17.50;75.50
21906;DHT22;11117;48.644;9.006;2023-04-26T11:49:43;17.80;75.40
21906;DHT22;11117;48.644;9.006;2023-04-26T11:52:10;18.10;76.80
21906;DHT22;11117;48.644;9.006;2023-04-26T11:54:36;17.60;72.30
21906;DHT22;11117;48.644;9.006;2023-04-26T11:57:12;17.50;74.20
21906;DHT22;11117;48.644;9.006;2023-04-26T11:59:38;17.30;72.50
21906;DHT22;11117;48.644;9.006;2023-04-26T12:02:07;17.20;73.80
21906;DHT22;11117;48.644;9.006;2023-04-26T12:04:33;16.30;74.10
21906;DHT22;11117;48.644;9.006;2023-04-26T12:06:58;16.40;76.70
21906;DHT22;11117;48.644;9.006;2023-04-26T12:09:28;15.80;76.20
21906;DHT22;11117;48.644;9.006;2023-04-26T12:12:01;16.00;77.60
21906;DHT22;11117;48.644;9.006;2023-04-26T12:14:34;15.20;75.50
21906;DHT22;11117;48.644;9.006;2023-04-26T12:17:00;15.50;77.60
21906;DHT22;11117;48.644;9.006;2023-04-26T12:19:26;15.80;75.80
21906;DHT22;11117;48.644;9.006;2023-04-26T12:21:52;16.30;78.30
21906;DHT22;11117;48.644;9.006;2023-04-26T12:26:47;16.90;78.30
21906;DHT22;11117;48.644;9.006;2023-04-26T12:29:12;17.30;77.10
21906;DHT22;11117;48.644;9.006;2023-04-26T12:31:38;17.20;74.60
21906;DHT22;11117;48.644;9.006;2023-04-26T12:34:03;17.40;76.80
21906;DHT22;11117;48.644;9.006;2023-04-26T12:36:30;17.80;76.00
21906;DHT22;11117;48.644;9.006;2023-04-26T12:38:55;18.10;74.40
21906;DHT22;11117;48.644;9.006;2023-04-26T12:41:21;17.80;74.20
21906;DHT22;11117;48.644;9.006;2023-04-26T12:43:46;18.10;75.40
21906;DHT22;11117;48.644;9.006;2023-04-26T12:46:12;18.40;76.80
21906;DHT22;11117;48.644;9.006;2023-04-26T12:48:37;18.70;74.30
21906;DHT22;11117;48.644;9.006;2023-04-26T12:51:03;19.00;74.80
21906;DHT22;11117;48.644;9.006;2023-04-26T12:53:28;19.20;70.80
21906;DHT22;11117;48.644;9.006;2023-04-26T12:55:55;19.00;71.60
21906;DHT22;11117;48.644;9.006;2023-04-26T12:58:21;17.80;71.70
21906;DHT22;11117;48.644;9.006;2023-04-26T13:00:46;17.00;72.50
21906;DHT22;11117;48.644;9.006;2023-04-26T13:03:12;17.60;73.80
21906;DHT22;11117;48.644;9.006;2023-04-26T13:05:38;17.60;74.90
21906;DHT22;11117;48.644;9.006;2023-04-26T13:08:03;17.80;72.90
21906;DHT22;11117;48.644;9.006;2023-04-26T13:10:29;17.90;74.60
21906;DHT22;11117;48.644;9.006;2023-04-26T13:12:54;17.10;73.40
21906;DHT22;11117;48.644;9.006;2023-04-26T13:15:20;17.00;75.00
21906;DHT22;11117;48.644;9.006;2023-04-26T13:17:46;17.50;76.20
21906;DHT22;11117;48.644;9.006;2023-04-26T13:20:11;17.80;75.30
21906;DHT22;11117;48.644;9.006;2023-04-26T13:22:37;17.80;73.80
21906;DHT22;11117;48.644;9.006;2023-04-26T13:25:03;18.00;76.30
21906;DHT22;11117;48.644;9.006;2023-04-26T13:27:28;18.10;74.50
21906;DHT22;11117;48.644;9.006;2023-04-26T13:29:54;17.80;75.30
21906;DHT22;11117;48.644;9.006;2023-04-26T13:32:20;18.20;74.60
21906;DHT22;11117;48.644;9.006;2023-04-26T13:34:46;18.30;75.90
21906;DHT22;11117;48.644;9.006;2023-04-26T13:37:12;18.40;75.20
21906;DHT22;11117;48.644;9.006;2023-04-26T13:39:37;18.50;74.10
21906;DHT22;11117;48.644;9.006;2023-04-26T13:42:03;17.10;73.20
21906;DHT22;11117;48.644;9.006;2023-04-26T13:44:28;16.80;74.50
21906;DHT22;11117;48.644;9.006;2023-04-26T13:46:55;16.20;74.70
21906;DHT22;11117;48.644;9.006;2023-04-26T13:49:20;16.40;74.40
21906;DHT22;11117;48.644;9.006;2023-04-26T13:51:46;16.10;75.60
21906;DHT22;11117;48.644;9.006;2023-04-26T13:54:11;16.30;75.80
21906;DHT22;11117;48.644;9.006;2023-04-26T13:56:37;16.90;77.40
21906;DHT22;11117;48.644;9.006;2023-04-26T13:59:02;17.30;76.40
21906;DHT22;11117;48.644;9.006;2023-04-26T14:01:28;17.40;74.70
21906;DHT22;11117;48.644;9.006;2023-04-26T14:03:54;17.40;75.60
21906;DHT22;11117;48.644;9.006;2023-04-26T14:06:19;17.10;73.50
21906;DHT22;11117;48.644;9.006;2023-04-26T14:08:45;16.90;74.10
21906;DHT22;11117;48.644;9.006;2023-04-26T14:11:11;16.80;74.40
21906;DHT22;11117;48.644;9.006;2023-04-26T14:13:36;17.00;76.20
21906;DHT22;11117;48.644;9.006;2023-04-26T14:16:02;17.50;75.60
21906;DHT22;11117;48.644;9.006;2023-04-26T14:18:27;17.50;75.40
21906;DHT22;11117;48.644;9.006;2023-04-26T14:20:53;16.50;76.00
21906;DHT22;11117;48.644;9.006;2023-04-26T14:23:19;16.40;77.60
21906;DHT22;11117;48.644;9.006;2023-04-26T14:25:44;16.70;78.90
21906;DHT22;11117;48.644;9.006;2023-04-26T14:28:10;16.30;76.80
21906;DHT22;11117;48.644;9.006;2023-04-26T14:30:35;16.10;76.10
21906;DHT22;11117;48.644;9.006;2023-04-26T14:33:01;16.40;78.00
21906;DHT22;11117;48.644;9.006;2023-04-26T14:35:26;16.90;79.20
21906;DHT22;11117;48.644;9.006;2023-04-26T14:37:52;17.30;77.10
21906;DHT22;11117;48.644;9.006;2023-04-26T14:40:17;17.20;77.00
21906;DHT22;11117;48.644;9.006;2023-04-26T14:42:43;16.70;78.60
21906;DHT22;11117;48.644;9.006;2023-04-26T14:45:09;17.10;79.50
21906;DHT22;11117;48.644;9.006;2023-04-26T14:47:35;17.20;79.70
21906;DHT22;11117;48.644;9.006;2023-04-26T14:50:00;17.50;77.80
21906;DHT22;11117;48.644;9.006;2023-04-26T14:52:26;17.70;75.70
21906;DHT22;11117;48.644;9.006;2023-04-26T14:54:51;17.60;78.20
21906;DHT22;11117;48.644;9.006;2023-04-26T14:57:17;17.90;77.00
21906;DHT22;11117;48.644;9.006;2023-04-26T14:59:46;17.70;74.60
21906;DHT22;11117;48.644;9.006;2023-04-26T15:02:11;17.80;78.20
21906;DHT22;11117;48.644;9.006;2023-04-26T15:04:37;18.10;77.40
21906;DHT22;11117;48.644;9.006;2023-04-26T15:07:03;18.40;78.60
21906;DHT22;11117;48.644;9.006;2023-04-26T15:09:28;18.50;76.90
21906;DHT22;11117;48.644;9.006;2023-04-26T15:11:54;18.10;78.90
21906;DHT22;11117;48.644;9.006;2023-04-26T15:14:20;17.30;78.80
21906;DHT22;11117;48.644;9.006;2023-04-26T15:16:45;17.00;77.80
21906;DHT22;11117;48.644;9.006;2023-04-26T15:19:11;16.80;77.40
21906;DHT22;11117;48.644;9.006;2023-04-26T15:21:36;16.00;76.60
21906;DHT22;11117;48.644;9.006;2023-04-26T15:24:02;15.60;78.50
21906;DHT22;11117;48.644;9.006;2023-04-26T15:26:27;15.70;77.70
21906;DHT22;11117;48.644;9.006;2023-04-26T15:28:53;15.50;78.80
21906;DHT22;11117;48.644;9.006;2023-04-26T15:31:53;15.80;79.00
21906;DHT22;11117;48.644;9.006;2023-04-26T15:34:12;15.80;78.90
21906;DHT22;11117;48.644;9.006;2023-04-26T15:36:38;15.30;78.30
21906;DHT22;11117;48.644;9.006;2023-04-26T15:39:03;15.10;79.10
21906;DHT22;11117;48.644;9.006;2023-04-26T15:41:29;14.80;79.70
21906;DHT22;11117;48.644;9.006;2023-04-26T15:43:55;14.50;80.20
21906;DHT22;11117;48.644;9.006;2023-04-26T15:46:20;14.30;81.00
21906;DHT22;11117;48.644;9.006;2023-04-26T15:48:46;14.50;84.20